createdAt,value
2019-03-23T00:01:16.537Z,71.48
2019-03-23T00:03:45.148Z,71.84
2019-03-23T00:06:13.640Z,71.74
2019-03-23T00:08:42.195Z,71.59
2019-03-23T00:11:10.636Z,71.71
2019-03-23T00:13:39.192Z,71.94
2019-03-23T00:16:07.685Z,72.03
2019-03-23T00:18:36.146Z,72.17
2019-03-23T00:21:04.673Z,71.99
2019-03-23T00:23:33.176Z,71.40
2019-03-23T00:26:01.619Z,71.29
2019-03-23T00:28:30.147Z,71.13
2019-03-23T00:30:58.602Z,70.97
2019-03-23T00:33:27.078Z,70.84
2019-03-23T00:35:55.507Z,70.52
2019-03-23T00:38:24.046Z,70.43
2019-03-23T00:40:52.476Z,69.97
2019-03-23T00:43:20.929Z,69.99
2019-03-23T00:45:49.356Z,70.32
2019-03-23T00:48:17.824Z,70.34
2019-03-23T00:50:46.412Z,71.10
2019-03-23T00:53:14.931Z,71.58
2019-03-23T00:55:43.384Z,71.15
2019-03-23T00:58:11.831Z,71.83
2019-03-23T01:00:40.301Z,71.74
2019-03-23T01:03:08.729Z,71.18
2019-03-23T01:05:37.254Z,71.76
2019-03-23T01:08:05.683Z,72.43
2019-03-23T01:10:34.160Z,72.99
2019-03-23T01:13:02.652Z,72.46
2019-03-23T01:15:31.174Z,73.18
2019-03-23T01:17:59.695Z,72.91
2019-03-23T01:20:28.159Z,72.72
2019-03-23T01:22:56.582Z,72.61
2019-03-23T01:25:25.065Z,72.41
2019-03-23T01:27:53.531Z,72.47
2019-03-23T01:30:22.020Z,72.23
2019-03-23T01:32:50.472Z,72.45
2019-03-23T01:35:18.894Z,72.49
2019-03-23T01:37:47.425Z,72.54
2019-03-23T01:40:15.911Z,72.91
2019-03-23T01:42:44.373Z,72.91
2019-03-23T01:45:13.632Z,73.10
2019-03-23T01:47:42.127Z,72.82
2019-03-23T01:50:11.914Z,72.71
2019-03-23T01:52:40.403Z,73.07
2019-03-23T01:55:09.406Z,73.04
2019-03-23T01:57:37.918Z,73.45
2019-03-23T02:00:09.314Z,73.66
2019-03-23T02:02:37.774Z,73.64
2019-03-23T02:05:07.859Z,74.04
2019-03-23T02:07:36.305Z,74.58
2019-03-23T02:10:08.154Z,74.00
2019-03-23T02:12:36.674Z,73.68
2019-03-23T02:15:08.325Z,74.16
2019-03-23T02:17:36.797Z,74.01
2019-03-23T02:20:13.530Z,74.11
2019-03-23T02:22:42.049Z,74.17
2019-03-23T02:25:10.648Z,74.60
2019-03-23T02:27:39.190Z,74.45
2019-03-23T02:30:10.355Z,74.29
2019-03-23T02:32:38.864Z,74.21
2019-03-23T02:35:08.937Z,74.18
2019-03-23T02:37:37.512Z,74.25
2019-03-23T02:40:10.499Z,73.90
2019-03-23T02:42:39.125Z,74.76
2019-03-23T02:45:09.597Z,74.77
2019-03-23T02:47:38.030Z,74.82
2019-03-23T02:50:10.371Z,74.87
2019-03-23T02:52:38.902Z,75.40
2019-03-23T02:55:09.687Z,75.51
2019-03-23T02:57:38.256Z,75.71
2019-03-23T03:00:17.435Z,75.72
2019-03-23T03:02:46.028Z,75.99
2019-03-23T03:05:14.733Z,75.61
2019-03-23T03:07:44.047Z,76.20
2019-03-23T03:10:21.653Z,76.60
2019-03-23T03:12:50.108Z,76.88
2019-03-23T03:15:18.623Z,77.11
2019-03-23T03:17:47.086Z,77.23
2019-03-23T03:20:15.683Z,77.12
2019-03-23T03:22:44.132Z,77.20
2019-03-23T03:25:12.653Z,77.58
2019-03-23T03:27:41.133Z,77.43
2019-03-23T03:30:11.534Z,77.05
2019-03-23T03:32:40.030Z,77.37
2019-03-23T03:35:08.670Z,77.55
2019-03-23T03:37:37.231Z,77.44
2019-03-23T03:40:07.337Z,77.32
2019-03-23T03:42:35.892Z,77.07
2019-03-23T03:45:09.385Z,76.70
2019-03-23T03:47:41.080Z,76.17
2019-03-23T03:50:09.669Z,75.72
2019-03-23T03:52:38.146Z,75.69
2019-03-23T03:55:07.275Z,75.46
2019-03-23T03:57:35.756Z,75.32
2019-03-23T04:00:07.166Z,75.50
2019-03-23T04:02:35.711Z,75.50
2019-03-23T04:05:04.768Z,75.19
2019-03-23T04:07:33.188Z,75.32
2019-03-23T04:10:01.657Z,75.39
2019-03-23T04:12:31.766Z,76.06
2019-03-23T04:15:00.366Z,76.77
2019-03-23T04:17:29.031Z,76.43
2019-03-23T04:19:57.472Z,76.61
2019-03-23T04:22:25.992Z,76.83
2019-03-23T04:24:54.448Z,76.93
2019-03-23T04:27:22.891Z,77.33
2019-03-23T04:29:51.349Z,77.33
2019-03-23T04:32:19.807Z,77.59
2019-03-23T04:34:48.307Z,77.48
2019-03-23T04:37:16.766Z,77.32
2019-03-23T04:39:45.185Z,77.25
2019-03-23T04:42:13.644Z,77.18
2019-03-23T04:44:42.076Z,77.09
2019-03-23T04:47:10.611Z,76.84
2019-03-23T04:49:39.030Z,76.76
2019-03-23T04:52:07.494Z,76.69
2019-03-23T04:54:35.914Z,76.69
2019-03-23T04:57:04.497Z,76.50
2019-03-23T04:59:32.911Z,76.52
2019-03-23T05:02:01.447Z,76.67
2019-03-23T05:04:29.939Z,76.68
2019-03-23T05:06:58.409Z,76.51
2019-03-23T05:09:26.832Z,76.48
2019-03-23T05:11:55.327Z,76.50
2019-03-23T05:14:23.800Z,76.62
2019-03-23T05:16:52.240Z,76.58
2019-03-23T05:19:20.857Z,76.67
2019-03-23T05:21:49.312Z,76.87
2019-03-23T05:24:17.835Z,76.92
2019-03-23T05:26:46.310Z,77.06
2019-03-23T05:29:14.733Z,77.11
2019-03-23T05:31:43.164Z,77.53
2019-03-23T05:34:11.681Z,77.40
2019-03-23T05:36:40.098Z,77.18
2019-03-23T05:39:08.559Z,77.19
2019-03-23T05:41:37.042Z,77.37
2019-03-23T05:44:05.641Z,77.51
2019-03-23T05:46:34.105Z,77.58
2019-03-23T05:49:02.507Z,77.46
2019-03-23T05:51:30.970Z,77.32
2019-03-23T05:53:59.476Z,76.59
2019-03-23T05:56:27.929Z,76.60
2019-03-23T05:58:56.392Z,75.77
2019-03-23T06:01:24.807Z,74.58
2019-03-23T06:03:53.261Z,72.76
2019-03-23T06:06:21.728Z,72.02
2019-03-23T06:08:55.063Z,70.95
2019-03-23T06:11:20.304Z,70.08
2019-03-23T06:13:48.773Z,69.48
2019-03-23T06:16:17.964Z,68.50
2019-03-23T06:18:46.549Z,68.25
2019-03-23T06:21:14.995Z,67.38
2019-03-23T06:23:43.418Z,66.61
2019-03-23T06:26:11.874Z,65.84
2019-03-23T06:28:40.307Z,64.65
2019-03-23T06:31:08.867Z,63.62
2019-03-23T06:33:37.281Z,62.02
2019-03-23T06:36:06.010Z,61.47
2019-03-23T06:38:34.471Z,60.77
2019-03-23T06:41:02.898Z,61.11
2019-03-23T06:43:31.358Z,60.44
2019-03-23T06:45:59.795Z,60.00
2019-03-23T06:48:28.255Z,60.01
2019-03-23T06:50:56.682Z,59.10
2019-03-23T06:53:25.218Z,57.57
2019-03-23T06:55:53.641Z,56.48
2019-03-23T06:58:22.111Z,55.94
2019-03-23T07:00:50.598Z,56.29
2019-03-23T07:03:19.099Z,55.83
2019-03-23T07:05:47.623Z,56.31
2019-03-23T07:08:16.045Z,56.32
2019-03-23T07:10:44.589Z,56.14
2019-03-23T07:13:13.055Z,54.02
2019-03-23T07:15:41.530Z,53.38
2019-03-23T07:18:09.960Z,52.58
2019-03-23T07:20:38.414Z,52.91
2019-03-23T07:23:07.015Z,53.27
2019-03-23T07:25:35.457Z,50.98
2019-03-23T07:28:04.078Z,49.51
2019-03-23T07:30:32.603Z,47.79
2019-03-23T07:33:01.148Z,46.88
2019-03-23T07:35:29.687Z,44.83
2019-03-23T07:37:58.223Z,43.82
2019-03-23T07:40:26.750Z,41.29
2019-03-23T07:42:55.266Z,41.02
2019-03-23T07:45:23.824Z,39.36
2019-03-23T07:47:52.325Z,38.26
2019-03-23T07:50:20.745Z,37.44
2019-03-23T07:52:49.279Z,36.11
2019-03-23T07:55:17.811Z,34.74
2019-03-23T07:57:46.320Z,34.00
2019-03-23T08:00:20.302Z,33.01
2019-03-23T08:02:48.883Z,32.34
2019-03-23T08:05:17.504Z,32.08
2019-03-23T08:07:46.077Z,31.54
2019-03-23T08:10:17.592Z,31.14
2019-03-23T08:12:47.056Z,30.47
2019-03-23T08:15:15.566Z,30.37
2019-03-23T08:17:44.125Z,30.33
2019-03-23T08:20:12.693Z,29.41
2019-03-23T08:22:41.146Z,29.44
2019-03-23T08:25:09.736Z,28.62
2019-03-23T08:27:38.193Z,27.89
2019-03-23T08:30:07.075Z,26.72
2019-03-23T08:32:35.618Z,26.18
2019-03-23T08:35:05.093Z,25.44
2019-03-23T08:37:33.697Z,25.29
2019-03-23T08:40:02.241Z,24.78
2019-03-23T08:42:30.663Z,24.59
2019-03-23T08:44:59.120Z,24.47
2019-03-23T08:47:27.618Z,22.82
2019-03-23T08:49:56.158Z,21.40
2019-03-23T08:52:24.660Z,22.43
2019-03-23T08:54:53.127Z,21.63
2019-03-23T08:57:21.695Z,21.21
2019-03-23T08:59:50.178Z,21.16
2019-03-23T09:02:18.675Z,19.44
2019-03-23T09:04:47.115Z,19.47
2019-03-23T09:07:15.582Z,18.79
2019-03-23T09:09:44.013Z,18.99
2019-03-23T09:12:12.472Z,18.46
2019-03-23T09:14:40.907Z,18.56
2019-03-23T09:17:09.464Z,16.86
2019-03-23T09:19:37.957Z,16.03
2019-03-23T09:22:06.468Z,16.01
2019-03-23T09:24:34.890Z,16.06
2019-03-23T09:27:03.377Z,15.55
2019-03-23T09:29:31.868Z,14.65
2019-03-23T09:32:00.323Z,15.29
2019-03-23T09:34:28.749Z,14.64
2019-03-23T09:36:57.202Z,13.92
2019-03-23T09:39:25.634Z,13.61
2019-03-23T09:41:54.171Z,14.54
2019-03-23T09:44:22.613Z,13.85
2019-03-23T09:46:51.050Z,13.14
2019-03-23T09:49:21.951Z,12.74
2019-03-23T09:51:49.759Z,11.87
2019-03-23T09:54:18.229Z,13.53
2019-03-23T09:56:46.752Z,13.82
2019-03-23T09:59:15.273Z,13.54
2019-03-23T10:01:43.785Z,14.22
2019-03-23T10:04:12.254Z,13.93
2019-03-23T10:06:40.695Z,13.64
2019-03-23T10:09:09.175Z,14.27
2019-03-23T10:11:37.675Z,13.19
2019-03-23T10:14:06.145Z,13.61
2019-03-23T10:16:34.646Z,14.36
2019-03-23T10:19:03.125Z,14.07
2019-03-23T10:21:31.581Z,13.87
2019-03-23T10:24:00.043Z,13.92
2019-03-23T10:26:28.583Z,13.76
2019-03-23T10:28:57.033Z,13.53
2019-03-23T10:31:25.548Z,12.98
2019-03-23T10:33:54.079Z,13.29
2019-03-23T10:36:22.515Z,14.05
2019-03-23T10:38:50.968Z,15.19
2019-03-23T10:41:19.535Z,15.04
2019-03-23T10:43:48.009Z,14.92
2019-03-23T10:46:16.447Z,13.73
2019-03-23T10:48:44.883Z,14.48
2019-03-23T10:51:13.434Z,14.15
2019-03-23T10:53:41.873Z,13.57
2019-03-23T10:56:10.345Z,13.42
2019-03-23T10:58:38.817Z,12.17
2019-03-23T11:01:07.315Z,13.32
2019-03-23T11:03:35.936Z,13.53
2019-03-23T11:06:04.506Z,13.08
2019-03-23T11:08:32.926Z,13.65
2019-03-23T11:11:01.390Z,13.37
2019-03-23T11:13:29.875Z,14.47
2019-03-23T11:15:58.137Z,14.22
2019-03-23T11:18:26.600Z,15.74
2019-03-23T11:20:55.024Z,15.64
2019-03-23T11:23:23.552Z,16.10
2019-03-23T11:25:52.022Z,17.11
2019-03-23T11:28:20.453Z,17.40
2019-03-23T11:30:48.909Z,18.86
2019-03-23T11:33:17.422Z,20.59
2019-03-23T11:35:45.879Z,19.17
2019-03-23T11:38:14.425Z,19.58
2019-03-23T11:40:52.183Z,19.66
2019-03-23T11:43:13.088Z,20.92
2019-03-23T11:45:41.569Z,20.75
2019-03-23T11:48:10.011Z,20.00
2019-03-23T11:50:38.458Z,20.66
2019-03-23T11:53:07.308Z,20.78
2019-03-23T11:55:35.737Z,21.45
2019-03-23T11:58:04.260Z,21.32
2019-03-23T12:00:32.863Z,21.50
2019-03-23T12:03:01.324Z,20.69
2019-03-23T12:05:29.778Z,21.29
2019-03-23T12:07:58.239Z,22.88
2019-03-23T12:10:26.807Z,20.68
2019-03-23T12:12:55.755Z,20.72
2019-03-23T12:15:24.230Z,20.82
2019-03-23T12:17:52.645Z,21.41
2019-03-23T12:20:21.155Z,21.24
2019-03-23T12:22:49.677Z,21.33
2019-03-23T12:25:18.110Z,21.14
2019-03-23T12:27:46.562Z,21.74
2019-03-23T12:30:17.014Z,20.96
2019-03-23T12:32:45.689Z,20.30
2019-03-23T12:35:14.585Z,21.18
2019-03-23T12:37:43.095Z,20.36
2019-03-23T12:40:12.345Z,21.51
2019-03-23T12:42:40.951Z,19.90
2019-03-23T12:45:10.155Z,20.87
2019-03-23T12:47:38.701Z,21.41
2019-03-23T12:50:08.722Z,21.48
2019-03-23T12:52:37.290Z,21.78
2019-03-23T12:55:07.567Z,21.95
2019-03-23T12:57:36.145Z,22.86
2019-03-23T13:00:07.738Z,22.99
2019-03-23T13:02:36.270Z,22.67
2019-03-23T13:05:07.299Z,21.77
2019-03-23T13:07:35.790Z,23.01
2019-03-23T13:10:06.614Z,23.05
2019-03-23T13:12:35.117Z,23.90
2019-03-23T13:15:04.785Z,24.40
2019-03-23T13:17:33.306Z,24.78
2019-03-23T13:20:01.810Z,24.34
2019-03-23T13:22:30.242Z,23.58
2019-03-23T13:24:58.694Z,24.41
2019-03-23T13:27:27.294Z,23.77
2019-03-23T13:29:55.759Z,22.65
2019-03-23T13:32:24.244Z,23.65
2019-03-23T13:34:52.761Z,24.72
2019-03-23T13:37:21.383Z,24.60
2019-03-23T13:39:49.844Z,24.02
2019-03-23T13:42:18.371Z,22.78
2019-03-23T13:44:46.948Z,22.48
2019-03-23T13:47:15.493Z,21.74
2019-03-23T13:49:43.958Z,21.94
2019-03-23T13:52:12.407Z,20.36
2019-03-23T13:54:41.020Z,19.29
2019-03-23T13:57:09.528Z,21.17
2019-03-23T13:59:38.770Z,20.62
2019-03-23T14:02:07.341Z,19.62
2019-03-23T14:04:35.839Z,19.19
2019-03-23T14:07:04.451Z,19.92
2019-03-23T14:09:32.925Z,19.70
2019-03-23T14:12:01.349Z,20.00
2019-03-23T14:14:29.801Z,20.73
2019-03-23T14:16:58.414Z,20.58
2019-03-23T14:19:26.921Z,23.45
2019-03-23T14:21:55.510Z,22.38
2019-03-23T14:24:24.349Z,23.04
2019-03-23T14:26:52.774Z,22.97
2019-03-23T14:29:21.282Z,22.74
2019-03-23T14:31:49.761Z,23.74
2019-03-23T14:34:18.229Z,22.24
2019-03-23T14:36:46.727Z,22.31
2019-03-23T14:39:15.194Z,21.96
2019-03-23T14:41:43.682Z,23.28
2019-03-23T14:44:12.096Z,24.25
2019-03-23T14:46:40.535Z,23.93
2019-03-23T14:49:09.004Z,23.31
2019-03-23T14:51:37.440Z,23.13
2019-03-23T14:54:05.910Z,22.84
2019-03-23T14:56:34.377Z,22.88
2019-03-23T14:59:02.855Z,22.91
2019-03-23T15:01:31.362Z,23.42
2019-03-23T15:03:59.864Z,23.79
2019-03-23T15:06:28.334Z,24.19
2019-03-23T15:08:56.775Z,24.59
2019-03-23T15:11:25.283Z,24.06
2019-03-23T15:13:54.677Z,23.27
2019-03-23T15:16:23.110Z,23.63
2019-03-23T15:18:52.529Z,24.86
2019-03-23T15:21:20.959Z,25.80
2019-03-23T15:23:49.413Z,25.79
2019-03-23T15:26:17.978Z,25.56
2019-03-23T15:28:46.524Z,24.81
2019-03-23T15:31:15.079Z,25.43
2019-03-23T15:33:43.503Z,25.15
2019-03-23T15:36:12.021Z,24.99
2019-03-23T15:38:40.493Z,25.43
2019-03-23T15:41:09.030Z,26.58
2019-03-23T15:43:37.503Z,27.74
2019-03-23T15:46:06.154Z,28.70
2019-03-23T15:48:34.608Z,28.70
2019-03-23T15:51:03.115Z,28.56
2019-03-23T15:53:31.689Z,28.90
2019-03-23T15:56:00.258Z,29.02
2019-03-23T15:58:28.841Z,29.24
2019-03-23T16:00:57.307Z,29.33
2019-03-23T16:03:25.840Z,29.41
2019-03-23T16:05:54.333Z,29.71
2019-03-23T16:08:22.889Z,29.74
2019-03-23T16:10:51.377Z,30.14
2019-03-23T16:13:19.887Z,29.80
2019-03-23T16:15:48.398Z,29.48
2019-03-23T16:18:16.953Z,29.34
2019-03-23T16:20:45.392Z,29.41
2019-03-23T16:23:13.876Z,29.98
2019-03-23T16:25:42.608Z,30.27
2019-03-23T16:28:11.063Z,30.69
2019-03-23T16:30:39.576Z,30.67
2019-03-23T16:33:08.259Z,30.80
2019-03-23T16:35:36.794Z,31.07
2019-03-23T16:38:05.240Z,31.42
2019-03-23T16:40:33.691Z,31.96
2019-03-23T16:43:02.535Z,32.09
2019-03-23T16:45:31.105Z,32.38
2019-03-23T16:47:59.704Z,32.59
2019-03-23T16:50:28.245Z,32.81
2019-03-23T16:52:56.746Z,33.45
2019-03-23T16:55:25.298Z,33.67
2019-03-23T16:57:53.766Z,34.33
2019-03-23T17:00:33.946Z,34.58
2019-03-23T17:03:02.802Z,34.79
2019-03-23T17:05:31.388Z,35.05
2019-03-23T17:07:59.870Z,35.55
2019-03-23T17:10:28.306Z,35.92
2019-03-23T17:12:56.747Z,35.90
2019-03-23T17:15:25.312Z,36.17
2019-03-23T17:17:53.785Z,36.64
2019-03-23T17:20:22.293Z,37.34
2019-03-23T17:22:50.770Z,37.87
2019-03-23T17:25:19.587Z,38.33
2019-03-23T17:27:48.061Z,38.65
2019-03-23T17:30:16.681Z,38.88
2019-03-23T17:32:45.107Z,39.57
2019-03-23T17:35:13.751Z,39.73
2019-03-23T17:37:42.350Z,40.14
2019-03-23T17:40:11.034Z,40.43
2019-03-23T17:42:39.509Z,40.83
2019-03-23T17:45:09.348Z,40.92
2019-03-23T17:47:37.811Z,40.79
2019-03-23T17:50:06.804Z,41.05
2019-03-23T17:52:35.263Z,41.21
2019-03-23T17:55:04.951Z,41.40
2019-03-23T17:57:33.521Z,41.53
2019-03-23T18:00:02.012Z,41.54
2019-03-23T18:02:30.449Z,41.56
2019-03-23T18:04:58.869Z,42.38
2019-03-23T18:07:27.535Z,42.46
2019-03-23T18:09:56.031Z,42.65
2019-03-23T18:12:24.498Z,42.54
2019-03-23T18:14:53.028Z,42.99
2019-03-23T18:17:21.496Z,43.22
2019-03-23T18:19:50.112Z,43.22
2019-03-23T18:22:18.554Z,43.65
2019-03-23T18:24:47.046Z,43.71
2019-03-23T18:27:17.068Z,43.61
2019-03-23T18:29:47.484Z,43.98
2019-03-23T18:32:15.842Z,44.29
2019-03-23T18:34:44.305Z,44.63
2019-03-23T18:37:12.842Z,44.59
2019-03-23T18:39:41.255Z,45.10
2019-03-23T18:42:09.873Z,45.41
2019-03-23T18:44:38.455Z,45.45
2019-03-23T18:47:06.933Z,45.12
2019-03-23T18:49:35.457Z,45.00
2019-03-23T18:52:04.059Z,44.93
2019-03-23T18:54:32.598Z,45.43
2019-03-23T18:57:01.033Z,45.68
2019-03-23T18:59:29.591Z,45.93
2019-03-23T19:01:58.038Z,46.28
2019-03-23T19:04:26.544Z,46.19
2019-03-23T19:06:55.028Z,46.71
2019-03-23T19:09:23.563Z,46.65
2019-03-23T19:11:52.042Z,46.93
2019-03-23T19:14:20.571Z,46.79
2019-03-23T19:16:49.127Z,47.18
2019-03-23T19:19:17.554Z,48.03
2019-03-23T19:21:46.085Z,48.01
2019-03-23T19:24:14.535Z,48.01
2019-03-23T19:26:43.051Z,48.19
2019-03-23T19:29:11.498Z,48.37
2019-03-23T19:31:39.960Z,48.70
2019-03-23T19:34:08.404Z,49.31
2019-03-23T19:36:36.936Z,49.09
2019-03-23T19:39:07.705Z,49.91
2019-03-23T19:41:36.207Z,50.20
2019-03-23T19:44:05.062Z,50.80
2019-03-23T19:46:33.571Z,51.20
2019-03-23T19:49:02.083Z,51.79
2019-03-23T19:51:30.559Z,51.63
2019-03-23T19:53:59.070Z,51.87
2019-03-23T19:56:27.641Z,51.99
2019-03-23T19:58:56.100Z,51.84
2019-03-23T20:01:24.717Z,51.85
2019-03-23T20:03:53.225Z,52.42
2019-03-23T20:06:21.793Z,52.76
2019-03-23T20:08:50.683Z,52.71
2019-03-23T20:11:19.284Z,54.22
2019-03-23T20:13:47.692Z,54.80
2019-03-23T20:16:16.266Z,54.46
2019-03-23T20:18:44.765Z,54.80
2019-03-23T20:21:13.234Z,55.62
2019-03-23T20:23:41.674Z,55.86
2019-03-23T20:26:10.132Z,56.34
2019-03-23T20:28:38.671Z,56.87
2019-03-23T20:31:07.204Z,56.81
2019-03-23T20:33:35.823Z,57.44
2019-03-23T20:36:04.422Z,57.84
2019-03-23T20:38:32.966Z,57.71
2019-03-23T20:41:01.472Z,58.34
2019-03-23T20:43:29.982Z,58.86
2019-03-23T20:45:58.478Z,59.51
2019-03-23T20:48:26.923Z,59.60
2019-03-23T20:50:55.539Z,59.16
2019-03-23T20:53:24.128Z,59.43
2019-03-23T20:55:52.594Z,60.72
2019-03-23T20:58:21.175Z,60.60
2019-03-23T21:00:49.662Z,61.39
2019-03-23T21:03:18.214Z,61.41
2019-03-23T21:05:46.649Z,61.02
2019-03-23T21:08:15.132Z,60.77
2019-03-23T21:10:43.642Z,61.83
2019-03-23T21:13:14.781Z,62.35
2019-03-23T21:15:43.248Z,62.31
2019-03-23T21:18:11.778Z,62.29
2019-03-23T21:20:40.327Z,62.76
2019-03-23T21:23:08.743Z,62.71
2019-03-23T21:25:37.565Z,62.21
2019-03-23T21:28:06.128Z,62.15
2019-03-23T21:30:34.595Z,62.37
2019-03-23T21:33:03.066Z,62.34
2019-03-23T21:35:31.519Z,63.73
2019-03-23T21:38:00.144Z,62.97
2019-03-23T21:40:28.632Z,63.48
2019-03-23T21:42:57.132Z,63.08
2019-03-23T21:45:25.737Z,62.47
2019-03-23T21:47:54.167Z,63.21
2019-03-23T21:50:22.671Z,63.09
2019-03-23T21:52:51.409Z,63.00
2019-03-23T21:55:19.926Z,63.04
2019-03-23T21:57:48.378Z,63.13
2019-03-23T22:00:19.969Z,63.60
2019-03-23T22:02:48.419Z,64.17
2019-03-23T22:05:16.946Z,64.33
2019-03-23T22:07:45.501Z,63.58
2019-03-23T22:10:13.988Z,64.34
2019-03-23T22:12:42.510Z,64.33
2019-03-23T22:15:11.289Z,64.40
2019-03-23T22:17:39.734Z,64.31
2019-03-23T22:20:09.623Z,63.61
2019-03-23T22:22:38.070Z,64.54
2019-03-23T22:25:07.436Z,64.35
2019-03-23T22:27:39.341Z,64.78
2019-03-23T22:30:13.165Z,64.53
2019-03-23T22:32:41.661Z,65.15
2019-03-23T22:35:10.383Z,64.75
2019-03-23T22:37:38.968Z,65.40
2019-03-23T22:40:10.509Z,65.00
2019-03-23T22:42:39.129Z,64.94
2019-03-23T22:45:08.998Z,65.33
2019-03-23T22:47:37.466Z,65.65
2019-03-23T22:50:07.334Z,65.58
2019-03-23T22:52:35.948Z,66.24
2019-03-23T22:55:06.112Z,66.06
2019-03-23T22:57:34.635Z,66.71
2019-03-23T23:00:03.431Z,66.30
2019-03-23T23:02:31.870Z,66.26
2019-03-23T23:05:00.327Z,66.63
2019-03-23T23:07:29.270Z,66.40
2019-03-23T23:09:57.839Z,66.75
2019-03-23T23:12:26.363Z,66.93
2019-03-23T23:15:04.038Z,66.74
2019-03-23T23:17:25.104Z,68.40
2019-03-23T23:19:53.749Z,67.36
2019-03-23T23:22:22.181Z,67.90
2019-03-23T23:24:50.618Z,68.65
2019-03-23T23:27:19.092Z,68.79
2019-03-23T23:29:47.641Z,68.27
2019-03-23T23:32:16.160Z,68.01
2019-03-23T23:34:44.619Z,67.84
2019-03-23T23:37:13.150Z,67.83
2019-03-23T23:39:41.674Z,68.56
2019-03-23T23:42:10.133Z,68.40
2019-03-23T23:44:38.573Z,68.52
2019-03-23T23:47:07.116Z,68.08
2019-03-23T23:49:35.608Z,69.27
2019-03-23T23:52:04.352Z,70.35
2019-03-23T23:54:32.789Z,71.12
2019-03-23T23:57:01.511Z,71.02
2019-03-23T23:59:30.013Z,71.70
